sensor_id;sensor_type;location;lat;lon;timestamp;temperature;humidity
15997;DHT22;8103;51.340;12.326;2022-12-18T00:01:29;-5.50;99.90
15997;DHT22;8103;51.340;12.326;2022-12-18T00:04:01;-5.50;99.90
15997;DHT22;8103;51.340;12.326;2022-12-18T00:06:30;-5.50;99.90
15997;DHT22;8103;51.340;12.326;2022-12-18T00:09:00;-5.50;99.90
15997;DHT22;8103;51.340;12.326;2022-12-18T00:11:29;-5.60;99.90
15997;DHT22;8103;51.340;12.326;2022-12-18T00:13:58;-5.60;99.90
15997;DHT22;8103;51.340;12.326;2022-12-18T00:16:28;-5.60;99.90
15997;DHT22;8103;51.340;12.326;2022-12-18T00:18:57;-5.60;99.90
15997;DHT22;8103;51.340;12.326;2022-12-18T00:21:26;-5.70;99.90
15997;DHT22;8103;51.340;12.326;2022-12-18T00:23:57;-5.70;99.90
15997;DHT22;8103;51.340;12.326;2022-12-18T00:26:30;-5.70;99.90
15997;DHT22;8103;51.340;12.326;2022-12-18T00:29:01;-5.80;99.90
15997;DHT22;8103;51.340;12.326;2022-12-18T00:31:31;-5.70;99.90
15997;DHT22;8103;51.340;12.326;2022-12-18T00:33:58;-5.70;99.90
15997;DHT22;8103;51.340;12.326;2022-12-18T00:36:28;-5.70;99.90
15997;DHT22;8103;51.340;12.326;2022-12-18T00:38:59;-5.70;99.90
15997;DHT22;8103;51.340;12.326;2022-12-18T00:41:28;-5.70;99.90
15997;DHT22;8103;51.340;12.326;2022-12-18T00:44:15;-5.60;99.90
15997;DHT22;8103;51.340;12.326;2022-12-18T00:46:44;-5.60;99.90
15997;DHT22;8103;51.340;12.326;2022-12-18T00:49:12;-5.60;99.90
15997;DHT22;8103;51.340;12.326;2022-12-18T00:51:39;-5.60;99.90
15997;DHT22;8103;51.340;12.326;2022-12-18T00:54:08;-5.60;99.90
15997;DHT22;8103;51.340;12.326;2022-12-18T00:56:36;-5.60;99.90
15997;DHT22;8103;51.340;12.326;2022-12-18T00:59:13;-5.60;99.90
15997;DHT22;8103;51.340;12.326;2022-12-18T01:01:40;-5.60;99.90
15997;DHT22;8103;51.340;12.326;2022-12-18T01:04:07;-5.70;99.90
15997;DHT22;8103;51.340;12.326;2022-12-18T01:06:34;-5.60;99.90
15997;DHT22;8103;51.340;12.326;2022-12-18T01:09:02;-5.60;99.90
15997;DHT22;8103;51.340;12.326;2022-12-18T01:11:29;-5.60;99.90
15997;DHT22;8103;51.340;12.326;2022-12-18T01:13:56;-5.60;99.90
15997;DHT22;8103;51.340;12.326;2022-12-18T01:16:23;-5.70;99.90
15997;DHT22;8103;51.340;12.326;2022-12-18T01:18:54;-5.70;99.90
15997;DHT22;8103;51.340;12.326;2022-12-18T01:21:22;-5.70;99.90
15997;DHT22;8103;51.340;12.326;2022-12-18T01:23:56;-5.70;99.90
15997;DHT22;8103;51.340;12.326;2022-12-18T01:26:25;-5.70;99.90
15997;DHT22;8103;51.340;12.326;2022-12-18T01:28:54;-5.70;99.90
15997;DHT22;8103;51.340;12.326;2022-12-18T01:31:32;-5.70;99.90
15997;DHT22;8103;51.340;12.326;2022-12-18T01:34:05;-5.70;99.90
15997;DHT22;8103;51.340;12.326;2022-12-18T01:36:34;-5.70;99.90
15997;DHT22;8103;51.340;12.326;2022-12-18T01:39:09;-5.70;99.90
15997;DHT22;8103;51.340;12.326;2022-12-18T01:41:39;-5.70;99.90
15997;DHT22;8103;51.340;12.326;2022-12-18T01:44:54;-5.80;99.90
15997;DHT22;8103;51.340;12.326;2022-12-18T01:47:36;-5.80;99.90
15997;DHT22;8103;51.340;12.326;2022-12-18T01:50:22;-5.90;99.90
15997;DHT22;8103;51.340;12.326;2022-12-18T01:53:04;-5.90;99.90
15997;DHT22;8103;51.340;12.326;2022-12-18T01:55:40;-5.90;99.90
15997;DHT22;8103;51.340;12.326;2022-12-18T01:58:20;-5.90;99.90
15997;DHT22;8103;51.340;12.326;2022-12-18T02:01:08;-5.90;99.90
15997;DHT22;8103;51.340;12.326;2022-12-18T02:03:36;-6.00;99.90
15997;DHT22;8103;51.340;12.326;2022-12-18T02:06:20;-6.00;99.90
15997;DHT22;8103;51.340;12.326;2022-12-18T02:09:07;-6.10;99.90
15997;DHT22;8103;51.340;12.326;2022-12-18T02:12:05;-6.10;99.90
15997;DHT22;8103;51.340;12.326;2022-12-18T02:14:59;-6.20;99.90
15997;DHT22;8103;51.340;12.326;2022-12-18T02:17:43;-6.20;99.90
15997;DHT22;8103;51.340;12.326;2022-12-18T02:20:21;-6.20;99.90
15997;DHT22;8103;51.340;12.326;2022-12-18T02:26:04;-6.20;99.90
15997;DHT22;8103;51.340;12.326;2022-12-18T02:28:55;-6.30;99.90
15997;DHT22;8103;51.340;12.326;2022-12-18T02:31:31;-6.30;99.90
15997;DHT22;8103;51.340;12.326;2022-12-18T02:34:06;-6.30;99.90
15997;DHT22;8103;51.340;12.326;2022-12-18T02:36:38;-6.30;99.90
15997;DHT22;8103;51.340;12.326;2022-12-18T02:39:10;-6.30;99.90
15997;DHT22;8103;51.340;12.326;2022-12-18T02:41:39;-6.40;99.90
15997;DHT22;8103;51.340;12.326;2022-12-18T02:44:09;-6.40;99.90
15997;DHT22;8103;51.340;12.326;2022-12-18T02:46:45;-6.40;99.90
15997;DHT22;8103;51.340;12.326;2022-12-18T02:49:44;-6.40;99.90
15997;DHT22;8103;51.340;12.326;2022-12-18T02:58:16;-6.50;99.90
15997;DHT22;8103;51.340;12.326;2022-12-18T03:01:16;-6.50;99.90
15997;DHT22;8103;51.340;12.326;2022-12-18T03:03:55;-6.50;99.90
15997;DHT22;8103;51.340;12.326;2022-12-18T03:06:33;-6.50;99.90
15997;DHT22;8103;51.340;12.326;2022-12-18T03:09:12;-6.50;99.90
15997;DHT22;8103;51.340;12.326;2022-12-18T03:11:53;-6.50;99.90
15997;DHT22;8103;51.340;12.326;2022-12-18T03:14:45;-6.60;99.90
15997;DHT22;8103;51.340;12.326;2022-12-18T03:17:27;-6.60;99.90
15997;DHT22;8103;51.340;12.326;2022-12-18T03:20:00;-6.60;99.90
15997;DHT22;8103;51.340;12.326;2022-12-18T03:22:33;-6.60;99.90
15997;DHT22;8103;51.340;12.326;2022-12-18T03:25:06;-6.60;99.90
15997;DHT22;8103;51.340;12.326;2022-12-18T03:27:39;-6.60;99.90
15997;DHT22;8103;51.340;12.326;2022-12-18T03:30:12;-6.50;99.90
15997;DHT22;8103;51.340;12.326;2022-12-18T03:32:48;-6.60;99.90
15997;DHT22;8103;51.340;12.326;2022-12-18T03:35:30;-6.60;99.90
15997;DHT22;8103;51.340;12.326;2022-12-18T03:38:01;-6.60;99.90
15997;DHT22;8103;51.340;12.326;2022-12-18T03:43:53;-6.50;99.90
15997;DHT22;8103;51.340;12.326;2022-12-18T03:46:33;-6.50;99.90
15997;DHT22;8103;51.340;12.326;2022-12-18T03:49:15;-6.50;99.90
15997;DHT22;8103;51.340;12.326;2022-12-18T03:52:11;-6.50;99.90
15997;DHT22;8103;51.340;12.326;2022-12-18T03:54:45;-6.50;99.90
15997;DHT22;8103;51.340;12.326;2022-12-18T03:57:18;-6.40;99.90
15997;DHT22;8103;51.340;12.326;2022-12-18T03:59:50;-6.40;99.90
15997;DHT22;8103;51.340;12.326;2022-12-18T04:02:22;-6.40;99.90
15997;DHT22;8103;51.340;12.326;2022-12-18T04:04:59;-6.40;99.90
15997;DHT22;8103;51.340;12.326;2022-12-18T04:07:29;-6.40;99.90
15997;DHT22;8103;51.340;12.326;2022-12-18T04:09:58;-6.40;99.90
15997;DHT22;8103;51.340;12.326;2022-12-18T04:12:29;-6.40;99.90
15997;DHT22;8103;51.340;12.326;2022-12-18T04:14:56;-6.40;99.90
15997;DHT22;8103;51.340;12.326;2022-12-18T04:17:23;-6.40;99.90
15997;DHT22;8103;51.340;12.326;2022-12-18T04:19:53;-6.40;99.90
15997;DHT22;8103;51.340;12.326;2022-12-18T04:22:20;-6.40;99.90
15997;DHT22;8103;51.340;12.326;2022-12-18T04:24:47;-6.40;99.90
15997;DHT22;8103;51.340;12.326;2022-12-18T04:27:14;-6.40;99.90
15997;DHT22;8103;51.340;12.326;2022-12-18T04:29:41;-6.40;99.90
15997;DHT22;8103;51.340;12.326;2022-12-18T04:32:08;-6.40;99.90
15997;DHT22;8103;51.340;12.326;2022-12-18T04:34:35;-6.40;99.90
15997;DHT22;8103;51.340;12.326;2022-12-18T04:37:02;-6.40;99.90
15997;DHT22;8103;51.340;12.326;2022-12-18T04:39:29;-6.40;99.90
15997;DHT22;8103;51.340;12.326;2022-12-18T04:41:55;-6.40;99.90
15997;DHT22;8103;51.340;12.326;2022-12-18T04:44:22;-6.30;99.90
15997;DHT22;8103;51.340;12.326;2022-12-18T04:46:49;-6.40;99.90
15997;DHT22;8103;51.340;12.326;2022-12-18T04:49:16;-6.40;99.90
15997;DHT22;8103;51.340;12.326;2022-12-18T04:51:43;-6.40;99.90
15997;DHT22;8103;51.340;12.326;2022-12-18T04:54:10;-6.40;99.90
15997;DHT22;8103;51.340;12.326;2022-12-18T04:56:37;-6.40;99.90
15997;DHT22;8103;51.340;12.326;2022-12-18T04:59:03;-6.40;99.90
15997;DHT22;8103;51.340;12.326;2022-12-18T05:01:34;-6.40;99.90
15997;DHT22;8103;51.340;12.326;2022-12-18T05:04:01;-6.40;99.90
15997;DHT22;8103;51.340;12.326;2022-12-18T05:06:29;-6.40;99.90
15997;DHT22;8103;51.340;12.326;2022-12-18T05:08:56;-6.40;99.90
15997;DHT22;8103;51.340;12.326;2022-12-18T05:11:22;-6.40;99.90
15997;DHT22;8103;51.340;12.326;2022-12-18T05:13:49;-6.40;99.90
15997;DHT22;8103;51.340;12.326;2022-12-18T05:16:16;-6.40;99.90
15997;DHT22;8103;51.340;12.326;2022-12-18T05:18:43;-6.40;99.90
15997;DHT22;8103;51.340;12.326;2022-12-18T05:21:10;-6.50;99.90
15997;DHT22;8103;51.340;12.326;2022-12-18T05:23:37;-6.50;99.90
15997;DHT22;8103;51.340;12.326;2022-12-18T05:26:06;-6.50;99.90
15997;DHT22;8103;51.340;12.326;2022-12-18T05:28:35;-6.50;99.90
15997;DHT22;8103;51.340;12.326;2022-12-18T05:31:03;-6.50;99.90
15997;DHT22;8103;51.340;12.326;2022-12-18T05:33:33;-6.50;99.90
15997;DHT22;8103;51.340;12.326;2022-12-18T05:36:05;-6.50;99.90
15997;DHT22;8103;51.340;12.326;2022-12-18T05:38:35;-6.50;99.90
15997;DHT22;8103;51.340;12.326;2022-12-18T05:41:04;-6.60;99.90
15997;DHT22;8103;51.340;12.326;2022-12-18T05:43:34;-6.60;99.90
15997;DHT22;8103;51.340;12.326;2022-12-18T05:46:12;-6.60;99.90
15997;DHT22;8103;51.340;12.326;2022-12-18T05:48:42;-6.60;99.90
15997;DHT22;8103;51.340;12.326;2022-12-18T05:51:13;-6.70;99.90
15997;DHT22;8103;51.340;12.326;2022-12-18T05:53:42;-6.60;99.90
15997;DHT22;8103;51.340;12.326;2022-12-18T05:56:12;-6.60;99.90
15997;DHT22;8103;51.340;12.326;2022-12-18T05:58:42;-6.60;99.90
15997;DHT22;8103;51.340;12.326;2022-12-18T06:01:14;-6.60;99.90
15997;DHT22;8103;51.340;12.326;2022-12-18T06:03:43;-6.70;99.90
15997;DHT22;8103;51.340;12.326;2022-12-18T06:06:23;-6.70;99.90
15997;DHT22;8103;51.340;12.326;2022-12-18T06:08:52;-6.70;99.90
15997;DHT22;8103;51.340;12.326;2022-12-18T06:11:23;-6.70;99.90
15997;DHT22;8103;51.340;12.326;2022-12-18T06:13:55;-6.70;99.90
15997;DHT22;8103;51.340;12.326;2022-12-18T06:16:25;-6.70;99.90
15997;DHT22;8103;51.340;12.326;2022-12-18T06:18:53;-6.70;99.90
15997;DHT22;8103;51.340;12.326;2022-12-18T06:21:23;-6.70;99.90
15997;DHT22;8103;51.340;12.326;2022-12-18T06:23:50;-6.70;99.90
15997;DHT22;8103;51.340;12.326;2022-12-18T06:26:16;-6.80;99.90
15997;DHT22;8103;51.340;12.326;2022-12-18T06:28:46;-6.80;99.90
15997;DHT22;8103;51.340;12.326;2022-12-18T06:35:12;-6.80;99.90
15997;DHT22;8103;51.340;12.326;2022-12-18T06:37:39;-6.80;99.90
15997;DHT22;8103;51.340;12.326;2022-12-18T06:40:07;-6.80;99.90
15997;DHT22;8103;51.340;12.326;2022-12-18T06:42:34;-6.90;99.90
15997;DHT22;8103;51.340;12.326;2022-12-18T06:45:01;-6.90;99.90
15997;DHT22;8103;51.340;12.326;2022-12-18T06:47:28;-6.90;99.90
15997;DHT22;8103;51.340;12.326;2022-12-18T06:49:55;-7.00;99.90
15997;DHT22;8103;51.340;12.326;2022-12-18T06:52:22;-6.90;99.90
15997;DHT22;8103;51.340;12.326;2022-12-18T06:54:48;-6.90;99.90
15997;DHT22;8103;51.340;12.326;2022-12-18T06:57:15;-6.90;99.90
15997;DHT22;8103;51.340;12.326;2022-12-18T06:59:42;-6.80;99.90
15997;DHT22;8103;51.340;12.326;2022-12-18T07:02:12;-6.90;99.90
15997;DHT22;8103;51.340;12.326;2022-12-18T07:04:39;-6.90;99.90
15997;DHT22;8103;51.340;12.326;2022-12-18T07:11:06;-6.90;99.90
15997;DHT22;8103;51.340;12.326;2022-12-18T07:13:33;-6.90;99.90
15997;DHT22;8103;51.340;12.326;2022-12-18T07:16:10;-6.90;99.90
15997;DHT22;8103;51.340;12.326;2022-12-18T07:18:46;-6.80;99.90
15997;DHT22;8103;51.340;12.326;2022-12-18T07:21:16;-6.80;99.90
15997;DHT22;8103;51.340;12.326;2022-12-18T07:23:45;-6.80;99.90
15997;DHT22;8103;51.340;12.326;2022-12-18T07:26:17;-6.80;99.90
15997;DHT22;8103;51.340;12.326;2022-12-18T07:28:45;-6.70;99.90
15997;DHT22;8103;51.340;12.326;2022-12-18T07:31:21;-6.70;99.90
15997;DHT22;8103;51.340;12.326;2022-12-18T07:33:49;-6.70;99.90
15997;DHT22;8103;51.340;12.326;2022-12-18T07:36:17;-6.70;99.90
15997;DHT22;8103;51.340;12.326;2022-12-18T07:38:47;-6.70;99.90
15997;DHT22;8103;51.340;12.326;2022-12-18T07:41:16;-6.70;99.90
15997;DHT22;8103;51.340;12.326;2022-12-18T07:43:44;-6.70;99.90
15997;DHT22;8103;51.340;12.326;2022-12-18T07:46:12;-6.70;99.90
15997;DHT22;8103;51.340;12.326;2022-12-18T07:48:41;-6.60;99.90
15997;DHT22;8103;51.340;12.326;2022-12-18T07:51:10;-6.60;99.90
15997;DHT22;8103;51.340;12.326;2022-12-18T07:53:40;-6.60;99.90
15997;DHT22;8103;51.340;12.326;2022-12-18T07:56:10;-6.60;99.90
15997;DHT22;8103;51.340;12.326;2022-12-18T07:58:56;-6.60;99.90
15997;DHT22;8103;51.340;12.326;2022-12-18T08:01:24;-6.50;99.90
15997;DHT22;8103;51.340;12.326;2022-12-18T08:03:51;-6.50;99.90
15997;DHT22;8103;51.340;12.326;2022-12-18T08:06:18;-6.50;99.90
15997;DHT22;8103;51.340;12.326;2022-12-18T08:08:47;-6.50;99.90
15997;DHT22;8103;51.340;12.326;2022-12-18T08:11:14;-6.40;99.90
15997;DHT22;8103;51.340;12.326;2022-12-18T08:13:41;-6.40;99.90
15997;DHT22;8103;51.340;12.326;2022-12-18T08:16:08;-6.40;99.90
15997;DHT22;8103;51.340;12.326;2022-12-18T08:18:36;-6.40;99.90
15997;DHT22;8103;51.340;12.326;2022-12-18T08:21:11;-6.40;99.90
15997;DHT22;8103;51.340;12.326;2022-12-18T08:23:44;-6.40;99.90
15997;DHT22;8103;51.340;12.326;2022-12-18T08:26:12;-6.30;99.90
15997;DHT22;8103;51.340;12.326;2022-12-18T08:28:40;-6.30;99.90
15997;DHT22;8103;51.340;12.326;2022-12-18T08:31:08;-6.20;99.90
15997;DHT22;8103;51.340;12.326;2022-12-18T08:33:37;-6.10;99.90
15997;DHT22;8103;51.340;12.326;2022-12-18T08:36:06;-5.90;99.90
15997;DHT22;8103;51.340;12.326;2022-12-18T08:38:35;-5.40;99.90
15997;DHT22;8103;51.340;12.326;2022-12-18T08:41:07;-4.40;99.90
15997;DHT22;8103;51.340;12.326;2022-12-18T08:43:36;-2.90;99.90
15997;DHT22;8103;51.340;12.326;2022-12-18T08:46:24;-1.40;99.90
15997;DHT22;8103;51.340;12.326;2022-12-18T08:48:53;0.00;99.90
15997;DHT22;8103;51.340;12.326;2022-12-18T08:51:22;1.20;99.50
15997;DHT22;8103;51.340;12.326;2022-12-18T08:53:49;1.90;96.50
15997;DHT22;8103;51.340;12.326;2022-12-18T08:56:17;2.80;93.40
15997;DHT22;8103;51.340;12.326;2022-12-18T08:58:45;3.60;90.10
15997;DHT22;8103;51.340;12.326;2022-12-18T09:01:13;4.20;85.70
15997;DHT22;8103;51.340;12.326;2022-12-18T09:03:40;4.80;81.10
15997;DHT22;8103;51.340;12.326;2022-12-18T09:08:39;6.10;68.90
15997;DHT22;8103;51.340;12.326;2022-12-18T09:11:17;6.60;67.60
15997;DHT22;8103;51.340;12.326;2022-12-18T09:17:55;7.50;60.00
15997;DHT22;8103;51.340;12.326;2022-12-18T09:20:22;7.90;57.30
15997;DHT22;8103;51.340;12.326;2022-12-18T09:22:49;8.20;56.40
15997;DHT22;8103;51.340;12.326;2022-12-18T09:25:16;8.20;55.10
15997;DHT22;8103;51.340;12.326;2022-12-18T09:27:42;8.10;55.10
15997;DHT22;8103;51.340;12.326;2022-12-18T09:30:10;8.10;54.90
15997;DHT22;8103;51.340;12.326;2022-12-18T09:32:37;8.50;55.10
15997;DHT22;8103;51.340;12.326;2022-12-18T09:35:04;8.90;54.20
15997;DHT22;8103;51.340;12.326;2022-12-18T09:37:31;9.50;52.80
15997;DHT22;8103;51.340;12.326;2022-12-18T09:39:58;10.00;51.00
15997;DHT22;8103;51.340;12.326;2022-12-18T09:42:24;10.00;49.90
15997;DHT22;8103;51.340;12.326;2022-12-18T09:44:53;10.30;49.20
15997;DHT22;8103;51.340;12.326;2022-12-18T09:47:25;10.60;48.30
15997;DHT22;8103;51.340;12.326;2022-12-18T09:54:24;9.90;45.50
15997;DHT22;8103;51.340;12.326;2022-12-18T09:56:58;6.70;49.30
15997;DHT22;8103;51.340;12.326;2022-12-18T09:59:35;4.60;53.00
15997;DHT22;8103;51.340;12.326;2022-12-18T10:02:19;3.00;56.80
15997;DHT22;8103;51.340;12.326;2022-12-18T10:05:16;1.70;61.60
15997;DHT22;8103;51.340;12.326;2022-12-18T10:10:46;0.00;70.70
15997;DHT22;8103;51.340;12.326;2022-12-18T10:13:31;-0.60;75.60
15997;DHT22;8103;51.340;12.326;2022-12-18T10:19:34;-1.30;84.40
15997;DHT22;8103;51.340;12.326;2022-12-18T10:28:17;-2.00;92.20
15997;DHT22;8103;51.340;12.326;2022-12-18T10:30:46;-2.10;93.60
15997;DHT22;8103;51.340;12.326;2022-12-18T10:33:22;-2.20;94.50
15997;DHT22;8103;51.340;12.326;2022-12-18T10:35:50;-2.20;95.40
15997;DHT22;8103;51.340;12.326;2022-12-18T10:40:58;-2.30;96.10
15997;DHT22;8103;51.340;12.326;2022-12-18T10:43:31;-2.40;96.40
15997;DHT22;8103;51.340;12.326;2022-12-18T10:46:14;-2.40;96.70
15997;DHT22;8103;51.340;12.326;2022-12-18T10:51:24;-2.40;97.40
15997;DHT22;8103;51.340;12.326;2022-12-18T10:53:57;-2.40;97.50
15997;DHT22;8103;51.340;12.326;2022-12-18T10:56:29;-2.40;97.80
15997;DHT22;8103;51.340;12.326;2022-12-18T10:59:09;-2.40;98.10
15997;DHT22;8103;51.340;12.326;2022-12-18T11:05:37;-2.40;98.40
15997;DHT22;8103;51.340;12.326;2022-12-18T11:08:04;-2.40;98.70
15997;DHT22;8103;51.340;12.326;2022-12-18T11:10:33;-2.30;98.80
15997;DHT22;8103;51.340;12.326;2022-12-18T11:13:11;-2.30;98.80
15997;DHT22;8103;51.340;12.326;2022-12-18T11:15:44;-2.30;99.20
15997;DHT22;8103;51.340;12.326;2022-12-18T11:18:32;-2.10;99.40
15997;DHT22;8103;51.340;12.326;2022-12-18T11:21:09;-2.00;99.30
15997;DHT22;8103;51.340;12.326;2022-12-18T11:23:49;-1.90;99.10
15997;DHT22;8103;51.340;12.326;2022-12-18T11:26:18;-1.80;98.90
15997;DHT22;8103;51.340;12.326;2022-12-18T11:28:46;-1.80;98.80
15997;DHT22;8103;51.340;12.326;2022-12-18T11:31:21;-1.80;98.70
15997;DHT22;8103;51.340;12.326;2022-12-18T11:34:13;-1.80;98.70
15997;DHT22;8103;51.340;12.326;2022-12-18T11:36:54;-1.80;98.70
15997;DHT22;8103;51.340;12.326;2022-12-18T11:39:41;-1.80;98.70
15997;DHT22;8103;51.340;12.326;2022-12-18T11:42:20;-1.80;98.70
15997;DHT22;8103;51.340;12.326;2022-12-18T11:44:54;-1.80;98.90
15997;DHT22;8103;51.340;12.326;2022-12-18T11:47:41;-1.70;99.00
15997;DHT22;8103;51.340;12.326;2022-12-18T11:50:38;-1.70;99.00
15997;DHT22;8103;51.340;12.326;2022-12-18T11:53:11;-1.60;99.10
15997;DHT22;8103;51.340;12.326;2022-12-18T12:04:14;-1.00;98.60
15997;DHT22;8103;51.340;12.326;2022-12-18T12:14:29;-0.60;97.00
15997;DHT22;8103;51.340;12.326;2022-12-18T12:39:23;-0.20;94.80
15997;DHT22;8103;51.340;12.326;2022-12-18T12:41:57;-0.20;94.70
15997;DHT22;8103;51.340;12.326;2022-12-18T12:44:48;-0.10;94.40
15997;DHT22;8103;51.340;12.326;2022-12-18T12:47:27;0.00;93.80
15997;DHT22;8103;51.340;12.326;2022-12-18T12:49:59;0.00;93.60
15997;DHT22;8103;51.340;12.326;2022-12-18T12:52:42;0.00;93.50
15997;DHT22;8103;51.340;12.326;2022-12-18T12:55:19;0.00;93.40
15997;DHT22;8103;51.340;12.326;2022-12-18T12:58:03;0.10;93.40
15997;DHT22;8103;51.340;12.326;2022-12-18T13:01:09;0.10;93.20
15997;DHT22;8103;51.340;12.326;2022-12-18T13:03:56;0.10;92.90
15997;DHT22;8103;51.340;12.326;2022-12-18T13:06:40;0.10;92.80
15997;DHT22;8103;51.340;12.326;2022-12-18T13:09:12;0.00;92.90
15997;DHT22;8103;51.340;12.326;2022-12-18T13:11:44;0.00;93.10
15997;DHT22;8103;51.340;12.326;2022-12-18T13:14:36;-0.10;93.40
15997;DHT22;8103;51.340;12.326;2022-12-18T13:20:10;-0.10;93.80
15997;DHT22;8103;51.340;12.326;2022-12-18T13:22:49;-0.20;94.00
15997;DHT22;8103;51.340;12.326;2022-12-18T13:25:36;-0.10;93.80
15997;DHT22;8103;51.340;12.326;2022-12-18T13:28:09;0.20;93.30
15997;DHT22;8103;51.340;12.326;2022-12-18T13:30:49;0.60;92.60
15997;DHT22;8103;51.340;12.326;2022-12-18T13:36:14;0.90;90.90
15997;DHT22;8103;51.340;12.326;2022-12-18T13:39:21;0.70;90.50
15997;DHT22;8103;51.340;12.326;2022-12-18T13:44:37;0.20;91.00
15997;DHT22;8103;51.340;12.326;2022-12-18T13:47:31;0.00;91.30
15997;DHT22;8103;51.340;12.326;2022-12-18T13:50:21;-0.30;91.70
15997;DHT22;8103;51.340;12.326;2022-12-18T13:52:54;-0.50;92.10
15997;DHT22;8103;51.340;12.326;2022-12-18T13:55:22;-0.80;92.50
15997;DHT22;8103;51.340;12.326;2022-12-18T13:57:49;-1.00;93.10
15997;DHT22;8103;51.340;12.326;2022-12-18T14:00:30;-1.20;93.50
15997;DHT22;8103;51.340;12.326;2022-12-18T14:02:58;-1.20;94.00
15997;DHT22;8103;51.340;12.326;2022-12-18T14:05:31;-1.40;94.20
15997;DHT22;8103;51.340;12.326;2022-12-18T14:08:09;-1.50;94.40
15997;DHT22;8103;51.340;12.326;2022-12-18T14:10:43;-1.60;94.70
15997;DHT22;8103;51.340;12.326;2022-12-18T14:13:30;-1.60;95.10
15997;DHT22;8103;51.340;12.326;2022-12-18T14:16:00;-1.70;95.40
15997;DHT22;8103;51.340;12.326;2022-12-18T14:18:43;-1.70;95.70
15997;DHT22;8103;51.340;12.326;2022-12-18T14:21:19;-1.80;96.00
15997;DHT22;8103;51.340;12.326;2022-12-18T14:24:12;-1.80;96.10
15997;DHT22;8103;51.340;12.326;2022-12-18T14:26:41;-1.80;96.30
15997;DHT22;8103;51.340;12.326;2022-12-18T14:29:29;-1.90;96.50
15997;DHT22;8103;51.340;12.326;2022-12-18T14:32:05;-2.00;96.60
15997;DHT22;8103;51.340;12.326;2022-12-18T14:34:50;-2.10;96.90
15997;DHT22;8103;51.340;12.326;2022-12-18T14:37:22;-2.20;97.50
15997;DHT22;8103;51.340;12.326;2022-12-18T14:39:57;-2.30;97.40
15997;DHT22;8103;51.340;12.326;2022-12-18T14:42:32;-2.30;97.70
15997;DHT22;8103;51.340;12.326;2022-12-18T14:45:37;-2.40;98.00
15997;DHT22;8103;51.340;12.326;2022-12-18T14:48:19;-2.50;98.20
15997;DHT22;8103;51.340;12.326;2022-12-18T14:51:04;-2.60;98.60
15997;DHT22;8103;51.340;12.326;2022-12-18T14:53:39;-2.70;99.00
15997;DHT22;8103;51.340;12.326;2022-12-18T14:56:18;-2.80;99.40
15997;DHT22;8103;51.340;12.326;2022-12-18T14:58:54;-2.90;99.70
15997;DHT22;8103;51.340;12.326;2022-12-18T15:01:34;-2.90;99.90
15997;DHT22;8103;51.340;12.326;2022-12-18T15:07:22;-3.00;99.90
15997;DHT22;8103;51.340;12.326;2022-12-18T15:10:21;-3.10;99.90
15997;DHT22;8103;51.340;12.326;2022-12-18T15:18:24;-3.10;99.90
15997;DHT22;8103;51.340;12.326;2022-12-18T15:21:07;-3.10;99.90
15997;DHT22;8103;51.340;12.326;2022-12-18T15:26:20;-3.10;99.90
15997;DHT22;8103;51.340;12.326;2022-12-18T15:31:29;-3.10;99.90
15997;DHT22;8103;51.340;12.326;2022-12-18T15:36:34;-3.10;99.90
15997;DHT22;8103;51.340;12.326;2022-12-18T15:39:03;-3.00;99.90
15997;DHT22;8103;51.340;12.326;2022-12-18T15:41:33;-3.10;99.90
15997;DHT22;8103;51.340;12.326;2022-12-18T15:44:37;-3.00;99.90
15997;DHT22;8103;51.340;12.326;2022-12-18T15:51:24;-3.00;99.90
15997;DHT22;8103;51.340;12.326;2022-12-18T15:54:00;-3.00;99.90
15997;DHT22;8103;51.340;12.326;2022-12-18T15:56:33;-3.00;99.90
15997;DHT22;8103;51.340;12.326;2022-12-18T15:59:20;-3.00;99.90
15997;DHT22;8103;51.340;12.326;2022-12-18T16:01:49;-3.10;99.90
15997;DHT22;8103;51.340;12.326;2022-12-18T16:04:20;-3.10;99.90
15997;DHT22;8103;51.340;12.326;2022-12-18T16:06:51;-3.10;99.90
15997;DHT22;8103;51.340;12.326;2022-12-18T16:09:38;-3.10;99.90
15997;DHT22;8103;51.340;12.326;2022-12-18T16:12:10;-3.10;99.90
15997;DHT22;8103;51.340;12.326;2022-12-18T16:14:42;-3.10;99.90
15997;DHT22;8103;51.340;12.326;2022-12-18T16:21:40;-3.20;99.90
15997;DHT22;8103;51.340;12.326;2022-12-18T16:24:15;-3.20;99.90
15997;DHT22;8103;51.340;12.326;2022-12-18T16:26:44;-3.20;99.90
15997;DHT22;8103;51.340;12.326;2022-12-18T16:29:11;-3.20;99.90
15997;DHT22;8103;51.340;12.326;2022-12-18T16:31:37;-3.30;99.90
15997;DHT22;8103;51.340;12.326;2022-12-18T16:34:31;-3.30;99.90
15997;DHT22;8103;51.340;12.326;2022-12-18T16:37:04;-3.30;99.90
15997;DHT22;8103;51.340;12.326;2022-12-18T16:39:36;-3.30;99.90
15997;DHT22;8103;51.340;12.326;2022-12-18T16:42:13;-3.30;99.90
15997;DHT22;8103;51.340;12.326;2022-12-18T16:44:47;-3.30;99.90
15997;DHT22;8103;51.340;12.326;2022-12-18T16:47:16;-3.30;99.90
15997;DHT22;8103;51.340;12.326;2022-12-18T16:49:44;-3.20;99.90
15997;DHT22;8103;51.340;12.326;2022-12-18T16:52:15;-3.20;99.90
15997;DHT22;8103;51.340;12.326;2022-12-18T16:54:47;-3.20;99.90
15997;DHT22;8103;51.340;12.326;2022-12-18T16:57:16;-3.20;99.90
15997;DHT22;8103;51.340;12.326;2022-12-18T16:59:45;-3.20;99.90
15997;DHT22;8103;51.340;12.326;2022-12-18T17:02:16;-3.20;99.90
15997;DHT22;8103;51.340;12.326;2022-12-18T17:04:49;-3.20;99.90
15997;DHT22;8103;51.340;12.326;2022-12-18T17:07:19;-3.20;99.90
15997;DHT22;8103;51.340;12.326;2022-12-18T17:09:49;-3.20;99.90
15997;DHT22;8103;51.340;12.326;2022-12-18T17:12:17;-3.20;99.90
15997;DHT22;8103;51.340;12.326;2022-12-18T17:14:47;-3.20;99.90
15997;DHT22;8103;51.340;12.326;2022-12-18T17:17:17;-3.20;99.90
15997;DHT22;8103;51.340;12.326;2022-12-18T17:19:50;-3.20;99.90
15997;DHT22;8103;51.340;12.326;2022-12-18T17:22:19;-3.20;99.90
15997;DHT22;8103;51.340;12.326;2022-12-18T17:24:46;-3.20;99.90
15997;DHT22;8103;51.340;12.326;2022-12-18T17:27:14;-3.20;99.90
15997;DHT22;8103;51.340;12.326;2022-12-18T17:29:41;-3.20;99.90
15997;DHT22;8103;51.340;12.326;2022-12-18T17:32:13;-3.10;99.90
15997;DHT22;8103;51.340;12.326;2022-12-18T17:34:42;-3.20;99.90
15997;DHT22;8103;51.340;12.326;2022-12-18T17:37:09;-3.20;99.90
15997;DHT22;8103;51.340;12.326;2022-12-18T17:39:36;-3.10;99.90
15997;DHT22;8103;51.340;12.326;2022-12-18T17:42:03;-3.10;99.90
15997;DHT22;8103;51.340;12.326;2022-12-18T17:44:31;-3.10;99.90
15997;DHT22;8103;51.340;12.326;2022-12-18T17:47:00;-3.10;99.90
15997;DHT22;8103;51.340;12.326;2022-12-18T17:49:32;-3.00;99.90
15997;DHT22;8103;51.340;12.326;2022-12-18T17:52:00;-3.00;99.90
15997;DHT22;8103;51.340;12.326;2022-12-18T17:54:30;-2.90;99.90
15997;DHT22;8103;51.340;12.326;2022-12-18T18:00:59;-2.90;99.90
15997;DHT22;8103;51.340;12.326;2022-12-18T18:03:26;-2.90;99.90
15997;DHT22;8103;51.340;12.326;2022-12-18T18:06:00;-2.80;99.90
15997;DHT22;8103;51.340;12.326;2022-12-18T18:08:29;-2.80;99.90
15997;DHT22;8103;51.340;12.326;2022-12-18T18:10:57;-2.80;99.90
15997;DHT22;8103;51.340;12.326;2022-12-18T18:13:47;-2.80;99.90
15997;DHT22;8103;51.340;12.326;2022-12-18T18:19:10;-2.70;99.90
15997;DHT22;8103;51.340;12.326;2022-12-18T18:21:41;-2.70;99.90
15997;DHT22;8103;51.340;12.326;2022-12-18T18:24:11;-2.70;99.90